NCAR-RAP Real-Time Weather Data

Output produced by METARs form (07 March 2021  05:39 UTC)
found at http://weather.rap.ucar.edu/surface/
 
KTYR 070453Z AUTO 09006KT 10SM CLR 11/M01 A3031 RMK AO2 SLP264 T01061006
KTYR 070353Z AUTO 09006KT 10SM CLR 11/M01 A3031 RMK AO2 SLP262 T01111011
KTYR 070253Z 09004KT 10SM CLR 12/M02 A3031 RMK AO2 SLP262 T01171017 53018
KTYR 070153Z 00000KT 10SM CLR 12/M01 A3029 RMK AO2 SLP255 T01171011
KTYR 070053Z 05004KT 10SM CLR 14/M03 A3026 RMK AO2 SLP246 T01391028
KTYR 062353Z 05007KT 10SM CLR 17/M04 A3025 RMK AO2 SLP243 T01671039 10183 20144 58004
KTYR 062253Z 04007KT 10SM CLR 18/M04 A3026 RMK AO2 SLP244 T01781039
KTYR 062153Z 10SM CLR 18/M04 A3026 RMK AO2 SLP247 T01781044
KTYR 062053Z 05006KT 10SM CLR 18/M04 A3027 RMK AO2 SLP247 T01781044 56025
KTYR 061953Z 06008KT 10SM CLR 17/M05 A3029 RMK AO2 SLP254 T01671050